sensor_id;sensor_type;location;lat;lon;timestamp;temperature;humidity
2212;DHT22;48849;48.758;9.158;2022-12-07T00:01:17;8.20;99.90
2212;DHT22;48849;48.758;9.158;2022-12-07T00:03:46;8.20;99.90
2212;DHT22;48849;48.758;9.158;2022-12-07T00:06:15;8.20;99.90
2212;DHT22;48849;48.758;9.158;2022-12-07T00:08:42;8.20;99.90
2212;DHT22;48849;48.758;9.158;2022-12-07T00:11:12;8.20;99.90
2212;DHT22;48849;48.758;9.158;2022-12-07T00:13:39;8.20;99.90
2212;DHT22;48849;48.758;9.158;2022-12-07T00:16:08;8.20;99.90
2212;DHT22;48849;48.758;9.158;2022-12-07T00:18:35;8.20;99.90
2212;DHT22;48849;48.758;9.158;2022-12-07T00:21:04;8.20;99.90
2212;DHT22;48849;48.758;9.158;2022-12-07T00:23:32;8.20;99.90
2212;DHT22;48849;48.758;9.158;2022-12-07T00:26:04;8.20;99.90
2212;DHT22;48849;48.758;9.158;2022-12-07T00:28:33;8.20;99.90
2212;DHT22;48849;48.758;9.158;2022-12-07T00:31:01;8.20;99.90
2212;DHT22;48849;48.758;9.158;2022-12-07T00:33:28;8.20;99.90
2212;DHT22;48849;48.758;9.158;2022-12-07T00:35:56;8.20;99.90
2212;DHT22;48849;48.758;9.158;2022-12-07T00:38:23;8.20;99.90
2212;DHT22;48849;48.758;9.158;2022-12-07T00:40:55;8.20;99.90
2212;DHT22;48849;48.758;9.158;2022-12-07T00:43:21;8.20;99.90
2212;DHT22;48849;48.758;9.158;2022-12-07T00:45:49;8.20;99.90
2212;DHT22;48849;48.758;9.158;2022-12-07T00:48:16;8.20;99.90
2212;DHT22;48849;48.758;9.158;2022-12-07T00:50:43;8.10;99.90
2212;DHT22;48849;48.758;9.158;2022-12-07T00:53:10;8.20;99.90
2212;DHT22;48849;48.758;9.158;2022-12-07T00:55:37;8.20;99.90
2212;DHT22;48849;48.758;9.158;2022-12-07T00:58:04;8.20;99.90
2212;DHT22;48849;48.758;9.158;2022-12-07T01:00:31;8.20;99.90
2212;DHT22;48849;48.758;9.158;2022-12-07T01:02:59;8.20;99.90
2212;DHT22;48849;48.758;9.158;2022-12-07T01:05:26;8.20;99.90
2212;DHT22;48849;48.758;9.158;2022-12-07T01:07:53;8.20;99.90
2212;DHT22;48849;48.758;9.158;2022-12-07T01:10:19;8.20;99.90
2212;DHT22;48849;48.758;9.158;2022-12-07T01:12:46;8.20;99.90
2212;DHT22;48849;48.758;9.158;2022-12-07T01:15:13;8.20;99.90
2212;DHT22;48849;48.758;9.158;2022-12-07T01:17:39;8.20;99.90
2212;DHT22;48849;48.758;9.158;2022-12-07T01:20:09;8.20;99.90
2212;DHT22;48849;48.758;9.158;2022-12-07T01:22:36;8.20;99.90
2212;DHT22;48849;48.758;9.158;2022-12-07T01:25:04;8.20;99.90
2212;DHT22;48849;48.758;9.158;2022-12-07T01:27:32;8.20;99.90
2212;DHT22;48849;48.758;9.158;2022-12-07T01:29:59;8.20;99.90
2212;DHT22;48849;48.758;9.158;2022-12-07T01:32:25;8.10;99.90
2212;DHT22;48849;48.758;9.158;2022-12-07T01:34:52;8.10;99.90
2212;DHT22;48849;48.758;9.158;2022-12-07T01:37:20;8.10;99.90
2212;DHT22;48849;48.758;9.158;2022-12-07T01:39:48;8.10;99.90
2212;DHT22;48849;48.758;9.158;2022-12-07T01:42:15;8.10;99.90
2212;DHT22;48849;48.758;9.158;2022-12-07T01:47:57;8.10;99.90
2212;DHT22;48849;48.758;9.158;2022-12-07T01:50:27;8.10;99.90
2212;DHT22;48849;48.758;9.158;2022-12-07T01:52:59;8.10;99.90
2212;DHT22;48849;48.758;9.158;2022-12-07T01:55:27;8.10;99.90
2212;DHT22;48849;48.758;9.158;2022-12-07T01:57:54;8.00;99.90
2212;DHT22;48849;48.758;9.158;2022-12-07T02:00:22;8.10;99.90
2212;DHT22;48849;48.758;9.158;2022-12-07T02:02:52;8.00;99.90
2212;DHT22;48849;48.758;9.158;2022-12-07T02:05:20;8.00;99.90
2212;DHT22;48849;48.758;9.158;2022-12-07T02:07:47;8.00;99.90
2212;DHT22;48849;48.758;9.158;2022-12-07T02:10:19;8.00;99.90
2212;DHT22;48849;48.758;9.158;2022-12-07T02:12:49;8.10;99.90
2212;DHT22;48849;48.758;9.158;2022-12-07T02:15:20;8.10;99.90
2212;DHT22;48849;48.758;9.158;2022-12-07T02:17:54;8.10;99.90
2212;DHT22;48849;48.758;9.158;2022-12-07T02:20:27;8.00;99.90
2212;DHT22;48849;48.758;9.158;2022-12-07T02:23:11;8.10;99.90
2212;DHT22;48849;48.758;9.158;2022-12-07T02:25:58;8.10;99.90
2212;DHT22;48849;48.758;9.158;2022-12-07T02:28:32;8.10;99.90
2212;DHT22;48849;48.758;9.158;2022-12-07T02:31:06;8.00;99.90
2212;DHT22;48849;48.758;9.158;2022-12-07T02:33:37;8.00;99.90
2212;DHT22;48849;48.758;9.158;2022-12-07T02:36:12;8.00;99.90
2212;DHT22;48849;48.758;9.158;2022-12-07T02:38:45;8.00;99.90
2212;DHT22;48849;48.758;9.158;2022-12-07T02:41:19;8.00;99.90
2212;DHT22;48849;48.758;9.158;2022-12-07T02:43:52;8.00;99.90
2212;DHT22;48849;48.758;9.158;2022-12-07T02:46:23;8.00;99.90
2212;DHT22;48849;48.758;9.158;2022-12-07T02:48:52;8.00;99.90
2212;DHT22;48849;48.758;9.158;2022-12-07T02:51:21;8.00;99.90
2212;DHT22;48849;48.758;9.158;2022-12-07T02:53:48;8.00;99.90
2212;DHT22;48849;48.758;9.158;2022-12-07T02:56:24;8.00;99.90
2212;DHT22;48849;48.758;9.158;2022-12-07T02:59:00;8.00;99.90
2212;DHT22;48849;48.758;9.158;2022-12-07T03:01:33;8.00;99.90
2212;DHT22;48849;48.758;9.158;2022-12-07T03:04:08;8.00;99.90
2212;DHT22;48849;48.758;9.158;2022-12-07T03:06:43;8.00;99.90
2212;DHT22;48849;48.758;9.158;2022-12-07T03:09:17;7.90;99.90
2212;DHT22;48849;48.758;9.158;2022-12-07T03:11:48;7.90;99.90
2212;DHT22;48849;48.758;9.158;2022-12-07T03:14:19;8.00;99.90
2212;DHT22;48849;48.758;9.158;2022-12-07T03:16:55;7.90;99.90
2212;DHT22;48849;48.758;9.158;2022-12-07T03:19:24;7.90;99.90
2212;DHT22;48849;48.758;9.158;2022-12-07T03:21:56;7.90;99.90
2212;DHT22;48849;48.758;9.158;2022-12-07T03:24:27;7.90;99.90
2212;DHT22;48849;48.758;9.158;2022-12-07T03:26:59;7.90;99.90
2212;DHT22;48849;48.758;9.158;2022-12-07T03:29:31;7.80;99.90
2212;DHT22;48849;48.758;9.158;2022-12-07T03:32:04;7.80;99.90
2212;DHT22;48849;48.758;9.158;2022-12-07T03:34:35;7.80;99.90
2212;DHT22;48849;48.758;9.158;2022-12-07T03:37:06;7.80;99.90
2212;DHT22;48849;48.758;9.158;2022-12-07T03:39:39;7.80;99.90
2212;DHT22;48849;48.758;9.158;2022-12-07T03:42:08;7.80;99.90
2212;DHT22;48849;48.758;9.158;2022-12-07T03:44:37;7.80;99.90
2212;DHT22;48849;48.758;9.158;2022-12-07T03:47:11;7.80;99.90
2212;DHT22;48849;48.758;9.158;2022-12-07T03:49:42;7.80;99.90
2212;DHT22;48849;48.758;9.158;2022-12-07T03:52:15;7.80;99.90
2212;DHT22;48849;48.758;9.158;2022-12-07T03:54:48;7.80;99.90
2212;DHT22;48849;48.758;9.158;2022-12-07T03:57:16;7.80;99.90
2212;DHT22;48849;48.758;9.158;2022-12-07T03:59:44;7.80;99.90
2212;DHT22;48849;48.758;9.158;2022-12-07T04:02:13;7.80;99.90
2212;DHT22;48849;48.758;9.158;2022-12-07T04:04:41;7.80;99.90
2212;DHT22;48849;48.758;9.158;2022-12-07T04:07:08;7.80;99.90
2212;DHT22;48849;48.758;9.158;2022-12-07T04:09:35;7.80;99.90
2212;DHT22;48849;48.758;9.158;2022-12-07T04:12:02;7.80;99.90
2212;DHT22;48849;48.758;9.158;2022-12-07T04:14:28;7.80;99.90
2212;DHT22;48849;48.758;9.158;2022-12-07T04:16:57;7.80;99.90
2212;DHT22;48849;48.758;9.158;2022-12-07T04:19:26;7.70;99.90
2212;DHT22;48849;48.758;9.158;2022-12-07T04:21:54;7.70;99.90
2212;DHT22;48849;48.758;9.158;2022-12-07T04:24:21;7.80;99.90
2212;DHT22;48849;48.758;9.158;2022-12-07T04:26:47;7.70;99.90
2212;DHT22;48849;48.758;9.158;2022-12-07T04:29:15;7.70;99.90
2212;DHT22;48849;48.758;9.158;2022-12-07T04:31:42;7.70;99.90
2212;DHT22;48849;48.758;9.158;2022-12-07T04:34:09;7.70;99.90
2212;DHT22;48849;48.758;9.158;2022-12-07T04:36:38;7.70;99.90
2212;DHT22;48849;48.758;9.158;2022-12-07T04:39:06;7.70;99.90
2212;DHT22;48849;48.758;9.158;2022-12-07T04:41:33;7.70;99.90
2212;DHT22;48849;48.758;9.158;2022-12-07T04:44:02;7.70;99.90
2212;DHT22;48849;48.758;9.158;2022-12-07T04:46:31;7.70;99.90
2212;DHT22;48849;48.758;9.158;2022-12-07T04:48:58;7.70;99.90
2212;DHT22;48849;48.758;9.158;2022-12-07T04:51:27;7.70;99.90
2212;DHT22;48849;48.758;9.158;2022-12-07T04:53:56;7.70;99.90
2212;DHT22;48849;48.758;9.158;2022-12-07T04:56:23;7.70;99.90
2212;DHT22;48849;48.758;9.158;2022-12-07T04:58:51;7.70;99.90
2212;DHT22;48849;48.758;9.158;2022-12-07T05:01:19;7.70;99.90
2212;DHT22;48849;48.758;9.158;2022-12-07T05:03:46;7.70;99.90
2212;DHT22;48849;48.758;9.158;2022-12-07T05:06:13;7.60;99.90
2212;DHT22;48849;48.758;9.158;2022-12-07T05:08:40;7.60;99.90
2212;DHT22;48849;48.758;9.158;2022-12-07T05:11:09;7.60;99.90
2212;DHT22;48849;48.758;9.158;2022-12-07T05:13:56;7.60;99.90
2212;DHT22;48849;48.758;9.158;2022-12-07T05:16:23;7.60;99.90
2212;DHT22;48849;48.758;9.158;2022-12-07T05:18:49;7.60;99.90
2212;DHT22;48849;48.758;9.158;2022-12-07T05:21:16;7.70;99.90
2212;DHT22;48849;48.758;9.158;2022-12-07T05:23:43;7.70;99.90
2212;DHT22;48849;48.758;9.158;2022-12-07T05:26:11;7.70;99.90
2212;DHT22;48849;48.758;9.158;2022-12-07T05:28:38;7.70;99.90
2212;DHT22;48849;48.758;9.158;2022-12-07T05:31:05;7.70;99.90
2212;DHT22;48849;48.758;9.158;2022-12-07T05:33:32;7.70;99.90
2212;DHT22;48849;48.758;9.158;2022-12-07T05:35:58;7.70;99.90
2212;DHT22;48849;48.758;9.158;2022-12-07T05:38:30;7.70;99.90
2212;DHT22;48849;48.758;9.158;2022-12-07T05:41:00;7.70;99.90
2212;DHT22;48849;48.758;9.158;2022-12-07T05:43:29;7.70;99.90
2212;DHT22;48849;48.758;9.158;2022-12-07T05:45:56;7.60;99.90
2212;DHT22;48849;48.758;9.158;2022-12-07T05:48:23;7.50;99.90
2212;DHT22;48849;48.758;9.158;2022-12-07T05:50:50;7.50;99.90
2212;DHT22;48849;48.758;9.158;2022-12-07T05:53:18;7.50;99.90
2212;DHT22;48849;48.758;9.158;2022-12-07T05:55:44;7.50;99.90
2212;DHT22;48849;48.758;9.158;2022-12-07T05:58:11;7.50;99.90
2212;DHT22;48849;48.758;9.158;2022-12-07T06:00:57;7.40;99.90
2212;DHT22;48849;48.758;9.158;2022-12-07T06:03:24;7.40;99.90
2212;DHT22;48849;48.758;9.158;2022-12-07T06:05:52;7.40;99.90
2212;DHT22;48849;48.758;9.158;2022-12-07T06:08:19;7.30;99.90
2212;DHT22;48849;48.758;9.158;2022-12-07T06:10:47;7.30;99.90
2212;DHT22;48849;48.758;9.158;2022-12-07T06:13:35;7.30;99.90
2212;DHT22;48849;48.758;9.158;2022-12-07T06:16:02;7.30;99.90
2212;DHT22;48849;48.758;9.158;2022-12-07T06:18:29;7.30;99.90
2212;DHT22;48849;48.758;9.158;2022-12-07T06:20:55;7.30;99.90
2212;DHT22;48849;48.758;9.158;2022-12-07T06:23:22;7.20;99.90
2212;DHT22;48849;48.758;9.158;2022-12-07T06:25:49;7.20;99.90
2212;DHT22;48849;48.758;9.158;2022-12-07T06:28:15;7.30;99.90
2212;DHT22;48849;48.758;9.158;2022-12-07T06:30:42;7.30;99.90
2212;DHT22;48849;48.758;9.158;2022-12-07T06:33:10;7.20;99.90
2212;DHT22;48849;48.758;9.158;2022-12-07T06:35:37;7.10;99.90
2212;DHT22;48849;48.758;9.158;2022-12-07T06:38:03;7.10;99.90
2212;DHT22;48849;48.758;9.158;2022-12-07T06:40:30;7.10;99.90
2212;DHT22;48849;48.758;9.158;2022-12-07T06:42:57;7.20;99.90
2212;DHT22;48849;48.758;9.158;2022-12-07T06:45:24;7.10;99.90
2212;DHT22;48849;48.758;9.158;2022-12-07T06:47:50;7.20;99.90
2212;DHT22;48849;48.758;9.158;2022-12-07T06:50:18;7.20;99.90
2212;DHT22;48849;48.758;9.158;2022-12-07T06:52:45;7.20;99.90
2212;DHT22;48849;48.758;9.158;2022-12-07T06:55:12;7.10;99.90
2212;DHT22;48849;48.758;9.158;2022-12-07T06:57:38;7.20;99.90
2212;DHT22;48849;48.758;9.158;2022-12-07T07:00:06;7.20;99.90
2212;DHT22;48849;48.758;9.158;2022-12-07T07:02:33;7.20;99.90
2212;DHT22;48849;48.758;9.158;2022-12-07T07:05:00;7.30;99.90
2212;DHT22;48849;48.758;9.158;2022-12-07T07:07:28;7.20;99.90
2212;DHT22;48849;48.758;9.158;2022-12-07T07:09:55;7.30;99.90
2212;DHT22;48849;48.758;9.158;2022-12-07T07:12:21;7.30;99.90
2212;DHT22;48849;48.758;9.158;2022-12-07T07:14:48;7.30;99.90
2212;DHT22;48849;48.758;9.158;2022-12-07T07:17:15;7.30;99.90
2212;DHT22;48849;48.758;9.158;2022-12-07T07:19:42;7.30;99.90
2212;DHT22;48849;48.758;9.158;2022-12-07T07:22:08;7.30;99.90
2212;DHT22;48849;48.758;9.158;2022-12-07T07:24:36;7.40;99.90
2212;DHT22;48849;48.758;9.158;2022-12-07T07:27:03;7.40;99.90
2212;DHT22;48849;48.758;9.158;2022-12-07T07:29:30;7.40;99.90
2212;DHT22;48849;48.758;9.158;2022-12-07T07:31:56;7.40;99.90
2212;DHT22;48849;48.758;9.158;2022-12-07T07:34:23;7.40;99.90
2212;DHT22;48849;48.758;9.158;2022-12-07T07:36:50;7.50;99.90
2212;DHT22;48849;48.758;9.158;2022-12-07T07:39:17;7.40;99.90
2212;DHT22;48849;48.758;9.158;2022-12-07T07:41:45;7.40;99.90
2212;DHT22;48849;48.758;9.158;2022-12-07T07:44:13;7.40;99.90
2212;DHT22;48849;48.758;9.158;2022-12-07T07:46:39;7.50;99.90
2212;DHT22;48849;48.758;9.158;2022-12-07T07:49:06;7.50;99.90
2212;DHT22;48849;48.758;9.158;2022-12-07T07:51:33;7.50;99.90
2212;DHT22;48849;48.758;9.158;2022-12-07T07:53:59;7.50;99.90
2212;DHT22;48849;48.758;9.158;2022-12-07T07:56:26;7.50;99.90
2212;DHT22;48849;48.758;9.158;2022-12-07T07:58:54;7.50;99.90
2212;DHT22;48849;48.758;9.158;2022-12-07T08:01:21;7.60;99.90
2212;DHT22;48849;48.758;9.158;2022-12-07T08:03:48;7.60;99.90
2212;DHT22;48849;48.758;9.158;2022-12-07T08:06:15;7.60;99.90
2212;DHT22;48849;48.758;9.158;2022-12-07T08:08:42;7.60;99.90
2212;DHT22;48849;48.758;9.158;2022-12-07T08:11:09;7.60;99.90
2212;DHT22;48849;48.758;9.158;2022-12-07T08:13:36;7.60;99.90
2212;DHT22;48849;48.758;9.158;2022-12-07T08:16:06;7.70;99.90
2212;DHT22;48849;48.758;9.158;2022-12-07T08:18:35;7.70;99.90
2212;DHT22;48849;48.758;9.158;2022-12-07T08:21:02;7.70;99.90
2212;DHT22;48849;48.758;9.158;2022-12-07T08:23:30;7.70;99.90
2212;DHT22;48849;48.758;9.158;2022-12-07T08:26:00;7.70;99.90
2212;DHT22;48849;48.758;9.158;2022-12-07T08:28:27;7.70;99.90
2212;DHT22;48849;48.758;9.158;2022-12-07T08:30:58;7.80;99.90
2212;DHT22;48849;48.758;9.158;2022-12-07T08:33:27;7.80;99.90
2212;DHT22;48849;48.758;9.158;2022-12-07T08:35:54;7.80;99.90
2212;DHT22;48849;48.758;9.158;2022-12-07T08:38:20;7.80;99.90
2212;DHT22;48849;48.758;9.158;2022-12-07T08:40:53;7.80;99.90
2212;DHT22;48849;48.758;9.158;2022-12-07T08:43:20;7.80;99.90
2212;DHT22;48849;48.758;9.158;2022-12-07T08:45:48;7.80;99.90
2212;DHT22;48849;48.758;9.158;2022-12-07T08:48:18;7.80;99.90
2212;DHT22;48849;48.758;9.158;2022-12-07T08:50:48;7.90;99.90
2212;DHT22;48849;48.758;9.158;2022-12-07T08:53:15;7.90;99.90
2212;DHT22;48849;48.758;9.158;2022-12-07T08:55:43;7.90;99.90
2212;DHT22;48849;48.758;9.158;2022-12-07T08:58:10;7.90;99.90
2212;DHT22;48849;48.758;9.158;2022-12-07T09:00:37;7.90;99.90
2212;DHT22;48849;48.758;9.158;2022-12-07T09:03:04;7.90;99.90
2212;DHT22;48849;48.758;9.158;2022-12-07T09:05:32;7.90;99.90
2212;DHT22;48849;48.758;9.158;2022-12-07T09:08:01;8.00;99.90
2212;DHT22;48849;48.758;9.158;2022-12-07T09:10:28;8.00;99.90
2212;DHT22;48849;48.758;9.158;2022-12-07T09:12:55;8.00;99.90
2212;DHT22;48849;48.758;9.158;2022-12-07T09:15:26;8.00;99.90
2212;DHT22;48849;48.758;9.158;2022-12-07T09:17:52;8.00;99.90
2212;DHT22;48849;48.758;9.158;2022-12-07T09:20:20;8.00;99.90
2212;DHT22;48849;48.758;9.158;2022-12-07T09:22:46;8.00;99.90
2212;DHT22;48849;48.758;9.158;2022-12-07T09:25:15;8.10;99.90
2212;DHT22;48849;48.758;9.158;2022-12-07T09:27:41;8.10;99.90
2212;DHT22;48849;48.758;9.158;2022-12-07T09:30:08;8.10;99.90
2212;DHT22;48849;48.758;9.158;2022-12-07T09:32:35;8.10;99.90
2212;DHT22;48849;48.758;9.158;2022-12-07T09:35:02;8.20;99.90
2212;DHT22;48849;48.758;9.158;2022-12-07T09:37:29;8.10;99.90
2212;DHT22;48849;48.758;9.158;2022-12-07T09:39:57;8.20;99.90
2212;DHT22;48849;48.758;9.158;2022-12-07T09:42:29;8.20;99.90
2212;DHT22;48849;48.758;9.158;2022-12-07T09:44:59;8.20;99.90
2212;DHT22;48849;48.758;9.158;2022-12-07T09:47:26;8.20;99.90
2212;DHT22;48849;48.758;9.158;2022-12-07T09:49:56;8.20;99.90
2212;DHT22;48849;48.758;9.158;2022-12-07T09:52:26;8.30;99.90
2212;DHT22;48849;48.758;9.158;2022-12-07T09:54:54;8.30;99.90
2212;DHT22;48849;48.758;9.158;2022-12-07T09:57:27;8.30;99.90
2212;DHT22;48849;48.758;9.158;2022-12-07T09:59:56;8.30;99.90
2212;DHT22;48849;48.758;9.158;2022-12-07T10:02:35;8.30;99.90
2212;DHT22;48849;48.758;9.158;2022-12-07T10:05:04;8.30;99.90
2212;DHT22;48849;48.758;9.158;2022-12-07T10:07:31;8.40;99.90
2212;DHT22;48849;48.758;9.158;2022-12-07T10:09:58;8.40;99.90
2212;DHT22;48849;48.758;9.158;2022-12-07T10:12:25;8.40;99.90
2212;DHT22;48849;48.758;9.158;2022-12-07T10:14:55;8.40;99.90
2212;DHT22;48849;48.758;9.158;2022-12-07T10:17:29;8.40;99.90
2212;DHT22;48849;48.758;9.158;2022-12-07T10:20:13;8.40;99.90
2212;DHT22;48849;48.758;9.158;2022-12-07T10:22:54;8.40;99.90
2212;DHT22;48849;48.758;9.158;2022-12-07T10:25:22;8.40;99.90
2212;DHT22;48849;48.758;9.158;2022-12-07T10:27:58;8.50;99.90
2212;DHT22;48849;48.758;9.158;2022-12-07T10:30:26;8.40;99.90
2212;DHT22;48849;48.758;9.158;2022-12-07T10:32:53;8.40;99.90
2212;DHT22;48849;48.758;9.158;2022-12-07T10:35:23;8.50;99.90
2212;DHT22;48849;48.758;9.158;2022-12-07T10:37:50;8.50;99.90
2212;DHT22;48849;48.758;9.158;2022-12-07T10:40:27;8.50;99.90
2212;DHT22;48849;48.758;9.158;2022-12-07T10:43:01;8.50;99.90
2212;DHT22;48849;48.758;9.158;2022-12-07T10:45:29;8.60;99.90
2212;DHT22;48849;48.758;9.158;2022-12-07T10:48:02;8.50;99.90
2212;DHT22;48849;48.758;9.158;2022-12-07T10:50:47;8.60;99.90
2212;DHT22;48849;48.758;9.158;2022-12-07T10:53:38;8.60;99.90
2212;DHT22;48849;48.758;9.158;2022-12-07T10:56:30;8.60;99.90
2212;DHT22;48849;48.758;9.158;2022-12-07T10:59:27;8.60;99.90
2212;DHT22;48849;48.758;9.158;2022-12-07T11:02:13;8.60;99.90
2212;DHT22;48849;48.758;9.158;2022-12-07T11:04:54;8.60;99.90
2212;DHT22;48849;48.758;9.158;2022-12-07T11:07:30;8.60;99.90
2212;DHT22;48849;48.758;9.158;2022-12-07T11:10:06;8.20;99.90
2212;DHT22;48849;48.758;9.158;2022-12-07T11:12:54;8.60;99.90
2212;DHT22;48849;48.758;9.158;2022-12-07T11:15:28;8.60;99.90
2212;DHT22;48849;48.758;9.158;2022-12-07T11:18:03;8.70;99.90
2212;DHT22;48849;48.758;9.158;2022-12-07T11:20:41;8.70;99.90
2212;DHT22;48849;48.758;9.158;2022-12-07T11:23:16;8.70;99.90
2212;DHT22;48849;48.758;9.158;2022-12-07T11:25:51;8.70;99.90
2212;DHT22;48849;48.758;9.158;2022-12-07T11:28:29;8.70;99.90
2212;DHT22;48849;48.758;9.158;2022-12-07T11:31:06;8.70;99.90
2212;DHT22;48849;48.758;9.158;2022-12-07T11:33:41;8.70;99.90
2212;DHT22;48849;48.758;9.158;2022-12-07T11:36:23;8.70;99.90
2212;DHT22;48849;48.758;9.158;2022-12-07T11:38:56;8.80;99.90
2212;DHT22;48849;48.758;9.158;2022-12-07T11:41:27;8.80;99.90
2212;DHT22;48849;48.758;9.158;2022-12-07T11:43:58;8.80;99.90
2212;DHT22;48849;48.758;9.158;2022-12-07T11:46:27;8.80;99.90
2212;DHT22;48849;48.758;9.158;2022-12-07T11:49:01;8.80;99.90
2212;DHT22;48849;48.758;9.158;2022-12-07T11:51:30;8.80;99.90
2212;DHT22;48849;48.758;9.158;2022-12-07T11:54:02;8.80;99.90
2212;DHT22;48849;48.758;9.158;2022-12-07T11:56:30;8.80;99.90
2212;DHT22;48849;48.758;9.158;2022-12-07T11:59:08;8.80;99.90
2212;DHT22;48849;48.758;9.158;2022-12-07T12:01:52;8.80;99.90
2212;DHT22;48849;48.758;9.158;2022-12-07T12:04:31;8.80;99.90
2212;DHT22;48849;48.758;9.158;2022-12-07T12:06:59;8.80;99.90
2212;DHT22;48849;48.758;9.158;2022-12-07T12:09:29;8.80;99.90
2212;DHT22;48849;48.758;9.158;2022-12-07T12:12:18;8.80;99.90
2212;DHT22;48849;48.758;9.158;2022-12-07T12:14:57;8.80;99.90
2212;DHT22;48849;48.758;9.158;2022-12-07T12:17:43;8.80;99.90
2212;DHT22;48849;48.758;9.158;2022-12-07T12:20:22;8.80;99.90
2212;DHT22;48849;48.758;9.158;2022-12-07T12:22:53;8.80;99.90
2212;DHT22;48849;48.758;9.158;2022-12-07T12:25:24;8.80;99.90
2212;DHT22;48849;48.758;9.158;2022-12-07T12:27:54;8.80;99.90
2212;DHT22;48849;48.758;9.158;2022-12-07T12:30:34;8.80;99.90
2212;DHT22;48849;48.758;9.158;2022-12-07T12:33:04;8.80;99.90
2212;DHT22;48849;48.758;9.158;2022-12-07T12:35:35;8.80;99.90
2212;DHT22;48849;48.758;9.158;2022-12-07T12:38:27;8.80;99.90
2212;DHT22;48849;48.758;9.158;2022-12-07T12:40:56;8.80;99.90
2212;DHT22;48849;48.758;9.158;2022-12-07T12:43:49;8.80;99.90
2212;DHT22;48849;48.758;9.158;2022-12-07T12:49:33;8.80;99.90
2212;DHT22;48849;48.758;9.158;2022-12-07T12:55:15;8.80;99.90
2212;DHT22;48849;48.758;9.158;2022-12-07T12:57:47;8.80;99.90
2212;DHT22;48849;48.758;9.158;2022-12-07T13:00:18;8.80;99.90
2212;DHT22;48849;48.758;9.158;2022-12-07T13:02:48;8.80;99.90
2212;DHT22;48849;48.758;9.158;2022-12-07T13:05:19;8.80;99.90
2212;DHT22;48849;48.758;9.158;2022-12-07T13:08:05;8.80;99.90
2212;DHT22;48849;48.758;9.158;2022-12-07T13:10:43;8.80;99.90
2212;DHT22;48849;48.758;9.158;2022-12-07T13:13:30;8.80;99.90
2212;DHT22;48849;48.758;9.158;2022-12-07T13:18:58;8.90;99.90
2212;DHT22;48849;48.758;9.158;2022-12-07T13:21:43;8.90;99.90
2212;DHT22;48849;48.758;9.158;2022-12-07T13:24:12;8.90;99.90
2212;DHT22;48849;48.758;9.158;2022-12-07T13:26:42;8.90;99.90
2212;DHT22;48849;48.758;9.158;2022-12-07T13:29:12;8.90;99.90
2212;DHT22;48849;48.758;9.158;2022-12-07T13:31:40;8.80;99.90
2212;DHT22;48849;48.758;9.158;2022-12-07T13:34:30;8.80;99.90
2212;DHT22;48849;48.758;9.158;2022-12-07T13:36:57;8.80;99.90
2212;DHT22;48849;48.758;9.158;2022-12-07T13:39:27;8.90;99.90
2212;DHT22;48849;48.758;9.158;2022-12-07T13:41:55;8.80;99.90
2212;DHT22;48849;48.758;9.158;2022-12-07T13:44:23;8.80;99.90
2212;DHT22;48849;48.758;9.158;2022-12-07T13:46:59;8.80;99.90
2212;DHT22;48849;48.758;9.158;2022-12-07T13:49:29;8.80;99.90
2212;DHT22;48849;48.758;9.158;2022-12-07T13:52:14;8.80;99.90
2212;DHT22;48849;48.758;9.158;2022-12-07T13:54:46;8.80;99.90
2212;DHT22;48849;48.758;9.158;2022-12-07T13:57:14;8.80;99.90
2212;DHT22;48849;48.758;9.158;2022-12-07T13:59:41;8.80;99.90
2212;DHT22;48849;48.758;9.158;2022-12-07T14:02:18;8.80;99.90
2212;DHT22;48849;48.758;9.158;2022-12-07T14:04:48;8.80;99.90
2212;DHT22;48849;48.758;9.158;2022-12-07T14:07:20;8.80;99.90
2212;DHT22;48849;48.758;9.158;2022-12-07T14:09:56;8.80;99.90
2212;DHT22;48849;48.758;9.158;2022-12-07T14:12:24;8.90;99.90
2212;DHT22;48849;48.758;9.158;2022-12-07T14:14:52;8.80;99.90
2212;DHT22;48849;48.758;9.158;2022-12-07T14:17:21;8.80;99.90
2212;DHT22;48849;48.758;9.158;2022-12-07T14:19:50;8.80;99.90
2212;DHT22;48849;48.758;9.158;2022-12-07T14:22:23;8.80;99.90
2212;DHT22;48849;48.758;9.158;2022-12-07T14:24:51;8.80;99.90
2212;DHT22;48849;48.758;9.158;2022-12-07T14:27:20;8.80;99.90
2212;DHT22;48849;48.758;9.158;2022-12-07T14:29:47;8.80;99.90
2212;DHT22;48849;48.758;9.158;2022-12-07T14:32:21;8.80;99.90
2212;DHT22;48849;48.758;9.158;2022-12-07T14:35:08;8.80;99.90
2212;DHT22;48849;48.758;9.158;2022-12-07T14:37:36;8.80;99.90
2212;DHT22;48849;48.758;9.158;2022-12-07T14:40:05;8.80;99.90
2212;DHT22;48849;48.758;9.158;2022-12-07T14:42:34;8.80;99.90
2212;DHT22;48849;48.758;9.158;2022-12-07T14:45:01;8.80;99.90
2212;DHT22;48849;48.758;9.158;2022-12-07T14:47:28;8.80;99.90
2212;DHT22;48849;48.758;9.158;2022-12-07T14:49:55;8.80;99.90
2212;DHT22;48849;48.758;9.158;2022-12-07T14:52:24;8.80;99.90
2212;DHT22;48849;48.758;9.158;2022-12-07T14:54:52;8.80;99.90
2212;DHT22;48849;48.758;9.158;2022-12-07T14:57:19;8.70;99.90
2212;DHT22;48849;48.758;9.158;2022-12-07T14:59:47;8.80;99.90
2212;DHT22;48849;48.758;9.158;2022-12-07T15:02:15;8.80;99.90
2212;DHT22;48849;48.758;9.158;2022-12-07T15:04:42;8.80;99.90
2212;DHT22;48849;48.758;9.158;2022-12-07T15:07:15;8.80;99.90
2212;DHT22;48849;48.758;9.158;2022-12-07T15:09:43;8.70;99.90
2212;DHT22;48849;48.758;9.158;2022-12-07T15:12:10;8.70;99.90
2212;DHT22;48849;48.758;9.158;2022-12-07T15:14:36;8.70;99.90
2212;DHT22;48849;48.758;9.158;2022-12-07T15:17:04;8.80;99.90
2212;DHT22;48849;48.758;9.158;2022-12-07T15:19:31;8.80;99.90
2212;DHT22;48849;48.758;9.158;2022-12-07T15:21:58;8.80;99.90
2212;DHT22;48849;48.758;9.158;2022-12-07T15:24:25;8.80;99.90
2212;DHT22;48849;48.758;9.158;2022-12-07T15:26:52;8.80;99.90
2212;DHT22;48849;48.758;9.158;2022-12-07T15:29:19;8.80;99.90
2212;DHT22;48849;48.758;9.158;2022-12-07T15:31:48;8.80;99.90
2212;DHT22;48849;48.758;9.158;2022-12-07T15:34:16;8.80;99.90
2212;DHT22;48849;48.758;9.158;2022-12-07T15:36:42;8.80;99.90
2212;DHT22;48849;48.758;9.158;2022-12-07T15:39:10;8.70;99.90
2212;DHT22;48849;48.758;9.158;2022-12-07T15:41:37;8.70;99.90
2212;DHT22;48849;48.758;9.158;2022-12-07T15:44:04;8.70;99.90
2212;DHT22;48849;48.758;9.158;2022-12-07T15:46:48;8.80;99.90
2212;DHT22;48849;48.758;9.158;2022-12-07T15:49:18;8.80;99.90
2212;DHT22;48849;48.758;9.158;2022-12-07T15:51:45;8.80;99.90
2212;DHT22;48849;48.758;9.158;2022-12-07T15:54:18;8.80;99.90
2212;DHT22;48849;48.758;9.158;2022-12-07T15:56:45;8.70;99.90
2212;DHT22;48849;48.758;9.158;2022-12-07T15:59:12;8.70;99.90
2212;DHT22;48849;48.758;9.158;2022-12-07T16:01:39;8.70;99.90
2212;DHT22;48849;48.758;9.158;2022-12-07T16:04:05;8.70;99.90
2212;DHT22;48849;48.758;9.158;2022-12-07T16:06:34;8.60;99.90
2212;DHT22;48849;48.758;9.158;2022-12-07T16:09:00;8.60;99.90
2212;DHT22;48849;48.758;9.158;2022-12-07T16:11:27;8.60;99.90
2212;DHT22;48849;48.758;9.158;2022-12-07T16:13:54;8.60;99.90
2212;DHT22;48849;48.758;9.158;2022-12-07T16:16:22;8.60;99.90
2212;DHT22;48849;48.758;9.158;2022-12-07T16:18:50;8.60;99.90
2212;DHT22;48849;48.758;9.158;2022-12-07T16:21:17;8.50;99.90
2212;DHT22;48849;48.758;9.158;2022-12-07T16:23:45;8.50;99.90
2212;DHT22;48849;48.758;9.158;2022-12-07T16:26:14;8.50;99.90
2212;DHT22;48849;48.758;9.158;2022-12-07T16:28:41;8.40;99.90
2212;DHT22;48849;48.758;9.158;2022-12-07T16:31:10;8.40;99.90
2212;DHT22;48849;48.758;9.158;2022-12-07T16:33:39;8.40;99.90